Time;durP1;ratioP1;P1;durP2;ratioP2;P2;SDS_P1;SDS_P2;PMS_P1;PMS_P2;Temp;Humidity;BMP_temperature;BMP_pressure;BME280_temperature;BME280_humidity;BME280_pressure;Samples;Min_cycle;Max_cycle;Signal;HPM_P1;HPM_P2
2022/06/19 00:00:10;;;;;;;22.52;4.40;;;24.70;77.40;;;;;;5082317;28;20047;-65
2022/06/19 00:02:37;;;;;;;15.77;4.40;;;24.70;77.60;;;;;;5081771;28;20080;-66
2022/06/19 00:05:03;;;;;;;19.90;4.30;;;24.70;77.40;;;;;;5086128;28;20039;-65
2022/06/19 00:07:29;;;;;;;13.98;4.47;;;24.60;77.60;;;;;;5074859;28;20607;-63
2022/06/19 00:09:55;;;;;;;16.42;4.25;;;24.50;77.50;;;;;;5087140;28;20115;-65
2022/06/19 00:12:21;;;;;;;17.13;4.38;;;24.50;77.50;;;;;;5083903;28;20166;-66
2022/06/19 00:14:47;;;;;;;17.48;4.28;;;24.60;76.50;;;;;;5083922;28;20036;-65
2022/06/19 00:17:14;;;;;;;16.08;4.45;;;24.60;76.60;;;;;;5076773;28;20039;-66
2022/06/19 00:19:39;;;;;;;21.98;4.45;;;24.60;76.00;;;;;;5083202;28;20020;-65
2022/06/19 00:22:06;;;;;;;23.73;4.70;;;24.60;75.70;;;;;;5085320;28;20053;-66
2022/06/19 00:24:32;;;;;;;20.15;4.70;;;24.60;75.70;;;;;;5080301;28;20389;-63
2022/06/19 00:26:58;;;;;;;26.25;5.30;;;24.60;75.80;;;;;;5084989;28;20032;-64
2022/06/19 00:29:26;;;;;;;24.48;3.95;;;24.50;75.90;;;;;;5090051;28;20128;-67
2022/06/19 00:31:51;;;;;;;14.55;4.68;;;24.50;75.50;;;;;;5088274;28;20035;-65
2022/06/19 00:34:17;;;;;;;25.08;4.60;;;24.50;75.60;;;;;;5089331;28;20036;-66
2022/06/19 00:36:45;;;;;;;17.73;3.83;;;24.50;75.60;;;;;;5076753;28;20039;-65
2022/06/19 00:39:11;;;;;;;15.27;3.65;;;24.40;75.30;;;;;;5080830;28;20028;-65
2022/06/19 00:41:42;;;;;;;16.23;3.67;;;24.40;75.50;;;;;;5078986;28;20024;-64
2022/06/19 00:44:10;;;;;;;14.25;3.75;;;24.40;74.10;;;;;;5076945;28;20114;-65
2022/06/19 00:46:53;;;;;;;13.40;4.40;;;24.40;76.00;;;;;;5074542;28;20031;-64
2022/06/19 00:49:24;;;;;;;15.20;4.47;;;24.30;74.00;;;;;;5075589;28;20063;-65
2022/06/19 00:52:03;;;;;;;12.43;4.15;;;24.30;74.70;;;;;;5083015;28;20676;-65
2022/06/19 00:54:36;;;;;;;16.00;4.25;;;24.10;75.90;;;;;;5087589;28;20039;-65
2022/06/19 00:57:02;;;;;;;13.50;4.15;;;24.00;76.00;;;;;;5087632;28;20078;-66
2022/06/19 00:59:29;;;;;;;17.77;4.18;;;24.10;75.60;;;;;;5083560;28;20051;-66
2022/06/19 01:01:55;;;;;;;20.48;4.40;;;24.10;74.30;;;;;;5085407;28;20028;-65
2022/06/19 01:04:34;;;;;;;13.13;3.88;;;24.30;73.70;;;;;;5089130;28;20106;-65
2022/06/19 01:07:00;;;;;;;14.05;4.15;;;24.30;73.60;;;;;;5090721;28;20050;-65
2022/06/19 01:09:26;;;;;;;12.88;4.00;;;24.30;73.50;;;;;;5088175;28;20376;-65
2022/06/19 01:11:52;;;;;;;20.67;4.38;;;24.20;74.70;;;;;;5088268;28;20444;-65
2022/06/19 01:14:23;;;;;;;15.88;3.92;;;24.00;75.70;;;;;;5083291;28;20777;-65
2022/06/19 01:16:49;;;;;;;18.08;4.20;;;23.90;75.70;;;;;;5070777;28;20036;-66
2022/06/19 01:19:22;;;;;;;16.55;4.10;;;23.80;75.90;;;;;;5078002;28;20036;-64
2022/06/19 01:22:20;;;;;;;12.82;4.00;;;23.80;75.80;;;;;;5089457;28;20028;-65
2022/06/19 01:25:17;;;;;;;7.55;4.50;;;23.80;75.70;;;;;;5035200;28;20127;-65
2022/06/19 01:30:34;;;;;;;18.95;4.38;;;23.70;76.40;;;;;;5078673;28;20055;-65
2022/06/19 01:33:03;;;;;;;19.60;4.18;;;23.70;76.00;;;;;;5075185;28;20028;-65
2022/06/19 01:35:33;;;;;;;19.48;4.85;;;23.70;76.00;;;;;;5069182;28;20036;-65
2022/06/19 01:38:02;;;;;;;17.83;5.03;;;23.70;76.40;;;;;;5081072;28;20472;-66
2022/06/19 01:40:33;;;;;;;17.73;4.15;;;23.70;77.00;;;;;;5086931;28;20131;-66
2022/06/19 01:42:58;;;;;;;13.57;4.25;;;23.60;76.20;;;;;;5080302;28;20020;-64
2022/06/19 01:45:24;;;;;;;25.70;4.20;;;23.70;75.50;;;;;;5075739;28;20421;-66
2022/06/19 01:47:51;;;;;;;16.33;3.80;;;23.70;75.60;;;;;;5082808;28;20140;-64
2022/06/19 01:50:22;;;;;;;13.13;3.80;;;23.80;75.70;;;;;;5081520;28;20060;-64
2022/06/19 01:52:56;;;;;;;19.23;4.20;;;23.70;76.50;;;;;;5080927;28;20033;-64
2022/06/19 01:55:28;;;;;;;13.98;4.00;;;23.60;76.80;;;;;;5088648;28;20063;-65
2022/06/19 01:57:56;;;;;;;11.13;4.18;;;23.50;77.50;;;;;;5079759;28;20081;-65
2022/06/19 02:00:24;;;;;;;17.90;3.78;;;23.40;77.50;;;;;;5088520;28;20795;-65
2022/06/19 02:03:02;;;;;;;21.75;4.40;;;23.40;76.60;;;;;;5085326;28;20099;-64
2022/06/19 02:05:28;;;;;;;17.50;4.20;;;23.30;76.70;;;;;;5081995;28;20085;-64
2022/06/19 02:07:54;;;;;;;20.88;5.13;;;23.40;75.00;;;;;;5085475;28;20032;-65
2022/06/19 02:10:20;;;;;;;18.20;4.03;;;23.60;73.10;;;;;;5083694;28;20028;-65
2022/06/19 02:12:46;;;;;;;26.17;4.30;;;23.80;72.20;;;;;;5071567;28;20539;-65
2022/06/19 02:15:12;;;;;;;29.05;4.43;;;23.90;70.60;;;;;;5088323;28;20102;-65
2022/06/19 02:17:45;;;;;;;20.13;4.40;;;24.10;69.10;;;;;;5089298;28;20399;-63
2022/06/19 02:20:12;;;;;;;16.95;3.40;;;24.40;67.80;;;;;;5086772;28;20024;-65
2022/06/19 02:22:37;;;;;;;30.95;3.92;;;24.40;66.80;;;;;;5083894;28;20096;-63
2022/06/19 02:25:04;;;;;;;21.38;4.13;;;24.60;66.00;;;;;;5078274;28;20021;-66
2022/06/19 02:27:32;;;;;;;16.50;4.20;;;24.80;65.60;;;;;;5087324;28;20040;-65
2022/06/19 02:29:59;;;;;;;15.13;3.75;;;24.80;65.20;;;;;;5084616;28;20693;-67
2022/06/19 02:32:39;;;;;;;20.90;4.20;;;24.50;68.50;;;;;;5087470;28;20028;-68
2022/06/19 02:35:09;;;;;;;15.60;3.60;;;24.40;67.00;;;;;;5080623;28;20036;-67
2022/06/19 02:37:43;;;;;;;20.42;4.53;;;24.50;66.50;;;;;;5087418;28;20024;-67
2022/06/19 02:40:38;;;;;;;18.67;3.75;;;24.70;65.90;;;;;;5074361;28;20032;-66
2022/06/19 02:43:10;;;;;;;20.50;3.83;;;25.10;63.90;;;;;;5079168;28;20032;-65
2022/06/19 02:45:39;;;;;;;18.73;3.72;;;25.10;64.30;;;;;;5087804;28;20039;-65
2022/06/19 02:48:06;;;;;;;10.97;3.83;;;25.10;64.20;;;;;;5073501;28;20831;-64
2022/06/19 02:50:34;;;;;;;20.60;3.95;;;25.00;64.80;;;;;;5086884;28;20024;-65
2022/06/19 02:53:00;;;;;;;14.52;4.13;;;25.00;64.10;;;;;;5083154;28;20081;-65
2022/06/19 02:55:26;;;;;;;19.83;4.13;;;25.10;64.60;;;;;;5076951;28;20105;-64
2022/06/19 02:57:52;;;;;;;17.95;4.38;;;25.00;65.40;;;;;;5081156;28;20032;-64
2022/06/19 03:00:24;;;;;;;26.95;4.10;;;25.00;65.40;;;;;;5083765;28;20109;-64
2022/06/19 03:02:54;;;;;;;18.50;4.45;;;25.00;65.50;;;;;;5075498;28;20032;-65
2022/06/19 03:05:22;;;;;;;;;;;24.80;67.40;;;;;;5085933;28;20027;-65
2022/06/19 03:07:48;;;;;;;23.27;4.60;;;24.70;67.80;;;;;;5087490;28;20511;-64
2022/06/19 03:10:14;;;;;;;21.83;4.43;;;24.50;67.20;;;;;;5073698;28;20099;-65
2022/06/19 03:12:39;;;;;;;20.13;4.22;;;24.30;70.70;;;;;;5088090;28;20040;-63
2022/06/19 03:15:06;;;;;;;16.27;3.55;;;24.00;70.20;;;;;;5080955;28;20047;-65
2022/06/19 03:17:32;;;;;;;27.08;4.57;;;23.80;70.40;;;;;;5085066;28;20040;-64
2022/06/19 03:19:58;;;;;;;14.23;4.18;;;23.70;71.50;;;;;;5079788;28;20028;-64
2022/06/19 03:22:24;;;;;;;21.85;4.20;;;23.70;72.60;;;;;;5087734;28;20092;-64
2022/06/19 03:24:49;;;;;;;12.68;3.67;;;23.60;73.40;;;;;;5079885;28;20024;-65
2022/06/19 03:27:16;;;;;;;21.05;4.10;;;23.40;74.40;;;;;;5088597;28;20047;-65
2022/06/19 03:29:42;;;;;;;13.82;4.38;;;23.30;74.70;;;;;;5076556;28;20071;-63
2022/06/19 03:32:12;;;;;;;18.25;3.47;;;23.20;75.90;;;;;;5083161;28;20559;-65
2022/06/19 03:34:38;;;;;;;21.17;4.13;;;23.10;76.10;;;;;;5082139;28;20123;-65
2022/06/19 03:37:04;;;;;;;15.57;4.55;;;23.00;77.00;;;;;;5080721;28;20036;-64
2022/06/19 03:39:29;;;;;;;17.77;3.60;;;23.00;76.90;;;;;;5084541;28;20516;-65
2022/06/19 03:41:55;;;;;;;23.20;4.60;;;23.00;76.20;;;;;;5086738;28;20066;-67
2022/06/19 03:44:21;;;;;;;18.42;4.20;;;22.90;78.20;;;;;;5084048;28;20043;-67
2022/06/19 03:46:46;;;;;;;13.57;3.75;;;22.80;77.80;;;;;;5082995;28;20033;-66
2022/06/19 03:49:12;;;;;;;20.45;4.57;;;22.80;78.20;;;;;;5071582;28;20062;-66
2022/06/19 03:51:38;;;;;;;18.33;4.55;;;22.80;77.80;;;;;;5085396;28;20040;-66
2022/06/19 03:54:07;;;;;;;19.70;3.90;;;22.80;78.60;;;;;;5082396;28;20036;-67
2022/06/19 03:56:34;;;;;;;22.95;4.28;;;22.60;79.80;;;;;;5087155;28;20123;-66
2022/06/19 03:58:59;;;;;;;11.38;4.57;;;22.50;80.90;;;;;;5091471;28;20028;-66
2022/06/19 04:01:33;;;;;;;22.35;4.35;;;22.50;81.00;;;;;;5086225;28;20404;-65
2022/06/19 04:03:59;;;;;;;22.52;4.05;;;22.40;83.30;;;;;;5087725;28;20480;-65
2022/06/19 04:06:28;;;;;;;14.23;3.70;;;22.40;84.10;;;;;;5079484;28;20037;-63
2022/06/19 04:08:54;;;;;;;21.55;4.63;;;22.30;85.00;;;;;;5089852;28;20056;-64
2022/06/19 04:11:22;;;;;;;17.92;4.15;;;22.30;85.00;;;;;;5092655;28;20025;-64
2022/06/19 04:13:48;;;;;;;25.13;4.47;;;22.20;84.40;;;;;;5088399;28;20036;-62
2022/06/19 04:16:33;;;;;;;19.27;3.83;;;22.20;84.80;;;;;;5089603;28;20086;-64
2022/06/19 04:19:02;;;;;;;18.85;4.00;;;22.20;85.20;;;;;;5081814;28;20057;-64
2022/06/19 04:21:29;;;;;;;10.30;3.90;;;22.30;85.90;;;;;;5072567;28;20032;-64
2022/06/19 04:23:58;;;;;;;16.13;4.82;;;22.30;89.30;;;;;;5070290;28;20039;-64
2022/06/19 04:26:27;;;;;;;16.77;4.68;;;22.30;89.90;;;;;;5089076;28;20036;-65
2022/06/19 04:28:53;;;;;;;15.55;5.45;;;22.20;90.40;;;;;;5088317;28;20059;-64
2022/06/19 04:31:19;;;;;;;20.20;7.63;;;22.20;90.90;;;;;;5089613;28;20040;-64
2022/06/19 04:33:45;;;;;;;16.85;6.55;;;22.30;91.20;;;;;;5083124;28;20074;-63
2022/06/19 04:36:14;;;;;;;19.13;5.97;;;22.30;91.30;;;;;;5080620;28;20031;-63
2022/06/19 04:38:41;;;;;;;16.92;5.78;;;22.30;91.80;;;;;;5080120;28;20055;-65
2022/06/19 04:41:28;;;;;;;17.95;5.68;;;22.30;92.10;;;;;;5085223;28;20035;-66
2022/06/19 04:43:55;;;;;;;18.92;5.95;;;22.40;92.20;;;;;;5070804;28;20027;-68
2022/06/19 04:46:22;;;;;;;17.08;5.47;;;22.50;92.20;;;;;;5079783;28;20031;-66
2022/06/19 04:48:48;;;;;;;18.33;5.20;;;22.60;91.80;;;;;;5083048;28;20044;-63
2022/06/19 04:51:15;;;;;;;28.85;5.90;;;22.60;91.50;;;;;;5074882;28;20020;-65
2022/06/19 04:53:40;;;;;;;22.45;6.22;;;22.60;92.40;;;;;;5070918;28;20039;-64
2022/06/19 04:56:07;;;;;;;16.65;5.18;;;22.70;92.60;;;;;;5078963;28;20032;-65
2022/06/19 04:58:34;;;;;;;17.98;4.95;;;22.80;92.80;;;;;;5073577;28;20066;-64
2022/06/19 05:01:03;;;;;;;15.30;4.70;;;23.00;92.80;;;;;;5081798;28;20040;-65
2022/06/19 05:03:29;;;;;;;11.45;4.00;;;23.10;93.10;;;;;;5080101;28;20024;-65
2022/06/19 05:05:55;;;;;;;9.15;4.40;;;23.10;92.70;;;;;;5070560;28;20036;-64
2022/06/19 05:08:22;;;;;;;17.00;5.07;;;22.90;93.50;;;;;;5079006;28;20036;-64
2022/06/19 05:10:48;;;;;;;16.17;4.47;;;22.90;94.30;;;;;;5080288;28;20074;-63
2022/06/19 05:13:21;;;;;;;21.58;4.85;;;23.10;93.90;;;;;;5083972;28;20028;-65
2022/06/19 05:15:48;;;;;;;17.02;4.57;;;23.20;94.60;;;;;;5079629;28;20049;-63
2022/06/19 05:18:15;;;;;;;15.43;4.63;;;23.20;95.00;;;;;;5086488;28;20032;-65
2022/06/19 05:20:41;;;;;;;15.02;4.22;;;23.20;94.90;;;;;;5085479;28;20048;-66
2022/06/19 05:23:07;;;;;;;13.80;4.38;;;23.30;94.90;;;;;;5081773;28;20126;-65
2022/06/19 05:25:33;;;;;;;19.05;4.45;;;23.30;95.10;;;;;;5087242;28;20070;-65
2022/06/19 05:27:59;;;;;;;20.35;4.93;;;23.40;94.70;;;;;;5089296;28;20424;-65
2022/06/19 05:30:24;;;;;;;20.67;4.53;;;23.50;94.10;;;;;;5079493;28;20119;-65
2022/06/19 05:32:50;;;;;;;17.80;4.45;;;23.40;94.70;;;;;;5074510;28;20555;-63
2022/06/19 05:35:16;;;;;;;19.23;5.00;;;23.40;94.90;;;;;;5072955;28;20045;-65
2022/06/19 05:37:41;;;;;;;16.33;4.80;;;23.50;94.40;;;;;;5071261;28;20033;-65
2022/06/19 05:40:09;;;;;;;16.92;5.40;;;23.70;94.80;;;;;;5074437;28;20147;-64
2022/06/19 05:42:36;;;;;;;13.73;4.55;;;23.80;94.90;;;;;;5070143;28;20039;-65
2022/06/19 05:45:02;;;;;;;20.38;5.65;;;23.90;95.10;;;;;;5081587;28;20490;-65
2022/06/19 05:47:28;;;;;;;13.38;4.32;;;24.00;95.00;;;;;;5080002;28;20119;-65
2022/06/19 05:49:55;;;;;;;13.98;4.78;;;24.20;94.60;;;;;;5076991;28;20094;-65
2022/06/19 05:52:24;;;;;;;14.98;5.10;;;24.20;94.40;;;;;;5089696;28;20039;-65
2022/06/19 05:54:52;;;;;;;13.23;4.60;;;24.30;93.50;;;;;;5088756;28;20450;-63
2022/06/19 05:57:18;;;;;;;13.60;4.93;;;24.50;93.70;;;;;;5092055;28;20036;-65
2022/06/19 05:59:44;;;;;;;12.98;4.85;;;24.70;94.50;;;;;;5080747;28;20043;-65
2022/06/19 06:02:13;;;;;;;17.55;5.32;;;24.80;95.50;;;;;;5078496;28;20025;-66
2022/06/19 06:04:39;;;;;;;19.50;4.90;;;24.80;96.20;;;;;;5105413;28;20032;-66
2022/06/19 06:07:11;;;;;;;18.35;5.22;;;24.90;96.00;;;;;;5101152;28;20032;-66
2022/06/19 06:09:37;;;;;;;12.90;4.43;;;25.00;95.70;;;;;;5099111;28;20028;-66
2022/06/19 06:12:04;;;;;;;17.20;4.85;;;25.10;95.50;;;;;;5089304;28;20051;-65
2022/06/19 06:14:30;;;;;;;21.52;4.70;;;25.20;94.30;;;;;;5089611;28;20036;-66
2022/06/19 06:16:56;;;;;;;18.55;4.53;;;25.40;92.70;;;;;;5089298;28;20040;-66
2022/06/19 06:19:22;;;;;;;17.70;5.05;;;25.60;93.40;;;;;;5094506;28;20035;-66
2022/06/19 06:21:47;;;;;;;13.20;4.75;;;25.70;92.50;;;;;;5097235;28;20038;-65
2022/06/19 06:24:15;;;;;;;18.15;4.50;;;25.90;92.20;;;;;;5084933;28;20111;-65
2022/06/19 06:26:41;;;;;;;18.50;4.38;;;26.20;91.90;;;;;;5093569;28;20034;-66
2022/06/19 06:29:10;;;;;;;23.33;5.80;;;26.20;90.70;;;;;;5108417;28;20446;-63
2022/06/19 06:31:36;;;;;;;19.33;4.93;;;26.30;87.70;;;;;;5083139;28;20616;-65
2022/06/19 06:34:02;;;;;;;21.75;5.05;;;26.40;90.40;;;;;;5078313;28;20036;-65
2022/06/19 06:36:29;;;;;;;22.60;6.15;;;26.40;89.40;;;;;;5080162;28;20040;-65
2022/06/19 06:38:55;;;;;;;22.95;4.68;;;26.50;91.10;;;;;;5087156;28;20036;-63
2022/06/19 06:41:21;;;;;;;26.73;4.97;;;26.60;89.60;;;;;;5080099;28;20480;-65
2022/06/19 06:43:47;;;;;;;21.48;4.90;;;26.60;89.40;;;;;;5076847;28;20039;-65
2022/06/19 06:46:21;;;;;;;22.48;4.97;;;26.80;89.00;;;;;;5080582;28;20669;-65
2022/06/19 06:48:52;;;;;;;21.48;4.68;;;27.00;90.30;;;;;;5084604;28;20027;-66
2022/06/19 06:51:23;;;;;;;19.92;5.40;;;27.10;88.30;;;;;;5076835;28;20713;-66
2022/06/19 06:53:49;;;;;;;21.02;4.70;;;27.30;88.20;;;;;;5089826;28;20024;-66
2022/06/19 06:56:15;;;;;;;18.70;5.05;;;27.50;87.10;;;;;;5090582;28;20039;-65
2022/06/19 06:58:40;;;;;;;26.23;4.80;;;27.70;89.90;;;;;;5089025;28;20024;-65
2022/06/19 07:01:08;;;;;;;19.42;5.07;;;27.70;87.40;;;;;;5088181;28;20070;-66
2022/06/19 07:03:34;;;;;;;24.63;6.03;;;27.80;86.40;;;;;;5087039;28;20032;-66
2022/06/19 07:06:00;;;;;;;20.10;5.35;;;27.90;85.90;;;;;;5087783;28;20055;-66
2022/06/19 07:08:26;;;;;;;16.73;5.20;;;27.90;87.60;;;;;;5088918;28;20086;-66
2022/06/19 07:10:51;;;;;;;17.77;5.40;;;28.00;87.40;;;;;;5087747;28;20028;-66
2022/06/19 07:13:18;;;;;;;18.20;4.97;;;28.20;86.10;;;;;;5091604;28;20032;-66
2022/06/19 07:15:44;;;;;;;26.45;5.88;;;28.20;87.60;;;;;;5084258;28;20032;-65
2022/06/19 07:18:11;;;;;;;28.08;6.10;;;28.30;86.30;;;;;;5076539;28;20039;-64
2022/06/19 07:20:37;;;;;;;31.65;5.68;;;28.30;78.10;;;;;;5081050;28;20094;-65
2022/06/19 07:23:05;;;;;;;25.13;5.90;;;28.40;81.80;;;;;;5073358;28;20434;-63
2022/06/19 07:25:31;;;;;;;27.10;5.97;;;28.50;81.40;;;;;;5081734;28;20031;-65
2022/06/19 07:27:59;;;;;;;28.30;5.95;;;28.50;82.30;;;;;;5075906;28;20078;-64
2022/06/19 07:30:26;;;;;;;21.88;5.53;;;28.70;80.40;;;;;;5081604;28;20056;-64
2022/06/19 07:32:53;;;;;;;22.90;5.38;;;28.90;78.40;;;;;;5087205;28;20473;-66
2022/06/19 07:35:19;;;;;;;25.88;5.32;;;29.00;79.40;;;;;;5072018;28;20395;-65
2022/06/19 07:37:44;;;;;;;25.27;6.10;;;29.10;72.10;;;;;;5088617;28;20624;-65
2022/06/19 07:40:13;;;;;;;20.05;5.85;;;29.20;72.80;;;;;;5087991;28;20140;-65
2022/06/19 07:42:39;;;;;;;26.25;6.38;;;29.20;73.30;;;;;;5088750;28;20023;-66
2022/06/19 07:45:05;;;;;;;26.17;6.32;;;29.30;73.50;;;;;;5087895;28;20036;-67
2022/06/19 07:50:17;;;;;;;30.95;6.22;;;29.30;71.30;;;;;;5087667;28;20086;-65
2022/06/19 07:52:46;;;;;;;23.48;6.10;;;29.40;73.30;;;;;;5087845;28;20067;-66
2022/06/19 07:55:17;;;;;;;29.30;6.07;;;29.70;74.90;;;;;;5087912;28;20024;-66
2022/06/19 07:57:43;;;;;;;26.60;6.28;;;29.90;70.70;;;;;;5088511;28;20121;-65
2022/06/19 08:00:17;;;;;;;25.02;5.47;;;30.00;70.30;;;;;;5082238;28;20086;-66
2022/06/19 08:02:49;;;;;;;21.05;5.55;;;30.00;71.70;;;;;;5068252;28;20492;-66
2022/06/19 08:05:15;;;;;;;23.95;5.78;;;30.10;74.10;;;;;;5067619;28;20024;-66
2022/06/19 08:07:41;;;;;;;24.52;5.90;;;30.20;73.20;;;;;;5068226;28;20024;-66
2022/06/19 08:10:09;;;;;;;29.00;6.50;;;30.20;70.10;;;;;;5078784;28;20028;-67
2022/06/19 08:12:34;;;;;;;25.27;6.25;;;30.10;67.90;;;;;;5088576;28;20165;-66
2022/06/19 08:15:00;;;;;;;30.77;6.20;;;30.10;69.00;;;;;;5087968;28;20131;-63
2022/06/19 08:17:25;;;;;;;23.73;6.50;;;30.30;70.00;;;;;;5088263;28;20036;-65
2022/06/19 08:19:51;;;;;;;24.33;6.82;;;30.50;67.30;;;;;;5088223;28;20031;-66
2022/06/19 08:22:17;;;;;;;22.35;6.25;;;30.60;65.30;;;;;;5087856;28;20032;-67
2022/06/19 08:24:43;;;;;;;31.95;6.88;;;30.60;66.80;;;;;;5088179;28;20150;-66
2022/06/19 08:27:08;;;;;;;24.25;6.93;;;30.60;64.30;;;;;;5086586;28;20122;-65
2022/06/19 08:29:34;;;;;;;25.35;7.82;;;30.70;65.20;;;;;;5088158;28;20130;-66
2022/06/19 08:32:00;;;;;;;29.85;8.30;;;30.80;63.90;;;;;;5081129;28;20025;-64
2022/06/19 08:34:27;;;;;;;33.65;7.72;;;30.90;64.00;;;;;;5067600;28;20025;-65
2022/06/19 08:36:54;;;;;;;24.83;8.10;;;30.90;64.90;;;;;;5067695;28;20033;-65
2022/06/19 08:39:21;;;;;;;24.15;8.63;;;31.10;63.00;;;;;;5067142;28;20025;-66
2022/06/19 08:41:49;;;;;;;34.60;8.57;;;31.20;65.00;;;;;;5068000;28;20024;-66
2022/06/19 08:44:18;;;;;;;37.22;9.70;;;31.30;63.20;;;;;;5081916;28;20032;-68
2022/06/19 08:47:04;;;;;;;23.23;8.65;;;31.40;62.10;;;;;;5092121;28;20093;-66
2022/06/19 08:49:44;;;;;;;27.40;10.07;;;31.40;61.90;;;;;;5091831;28;20024;-66
2022/06/19 08:52:38;;;;;;;26.63;10.95;;;31.40;60.60;;;;;;5090919;28;20028;-67
2022/06/19 08:55:07;;;;;;;32.83;10.40;;;31.30;59.50;;;;;;5086053;28;20031;-63
2022/06/19 08:58:26;;;;;;;33.15;10.82;;;31.20;61.60;;;;;;5071203;28;20489;-66
2022/06/19 09:01:16;;;;;;;27.33;10.57;;;31.40;61.60;;;;;;5028430;28;20041;-67
2022/06/19 09:07:29;;;;;;;35.20;11.07;;;31.70;60.10;;;;;;5070819;28;20098;-64
2022/06/19 09:10:07;;;;;;;28.45;11.35;;;31.90;63.30;;;;;;5071406;28;20032;-65
2022/06/19 09:12:57;;;;;;;32.67;11.85;;;31.80;63.00;;;;;;5070910;28;20028;-66
2022/06/19 09:15:39;;;;;;;23.13;11.30;;;31.90;59.60;;;;;;5070167;28;20036;-65
2022/06/19 09:18:12;;;;;;;39.80;12.48;;;31.90;61.50;;;;;;5081673;28;20089;-63
2022/06/19 09:20:45;;;;;;;33.22;12.77;;;31.90;58.70;;;;;;5091169;28;20028;-66
2022/06/19 09:23:45;;;;;;;25.40;12.80;;;31.90;59.50;;;;;;5089787;28;20081;-65
2022/06/19 09:26:37;;;;;;;34.80;12.75;;;32.20;61.30;;;;;;5069369;28;20477;-66
2022/06/19 09:29:10;;;;;;;30.58;12.50;;;32.20;60.50;;;;;;5067475;28;20048;-64
2022/06/19 09:31:35;;;;;;;24.90;12.35;;;32.50;61.30;;;;;;5071112;28;20071;-66
2022/06/19 09:34:08;;;;;;;20.83;11.68;;;32.60;56.80;;;;;;5073010;28;20265;-66
2022/06/19 09:36:44;;;;;;;22.52;12.27;;;32.50;58.00;;;;;;5084704;28;20107;-66
2022/06/19 09:39:25;;;;;;;25.27;12.02;;;32.70;59.30;;;;;;5089873;28;20023;-65
2022/06/19 09:42:09;;;;;;;27.27;13.43;;;32.70;58.30;;;;;;5090711;28;20050;-66
2022/06/19 09:44:41;;;;;;;27.80;12.65;;;32.90;56.50;;;;;;5089477;28;20032;-66
2022/06/19 09:47:23;;;;;;;24.73;12.85;;;32.70;58.70;;;;;;5089821;28;20020;-64
2022/06/19 09:50:04;;;;;;;30.50;13.15;;;32.70;57.40;;;;;;5090924;28;20370;-67
2022/06/19 09:52:51;;;;;;;35.53;12.77;;;32.70;57.50;;;;;;5089668;28;20058;-66
2022/06/19 09:55:33;;;;;;;29.85;13.07;;;32.50;57.40;;;;;;5089517;28;20048;-67
2022/06/19 09:58:12;;;;;;;36.25;13.25;;;32.50;58.20;;;;;;5090212;28;20051;-66
2022/06/19 10:00:40;;;;;;;32.10;13.02;;;32.60;56.50;;;;;;5090496;28;20040;-66
2022/06/19 10:03:38;;;;;;;29.58;12.93;;;32.70;57.60;;;;;;5089611;28;20544;-64
2022/06/19 10:06:33;;;;;;;23.40;12.45;;;32.70;57.30;;;;;;5088118;28;20144;-64
2022/06/19 10:09:16;;;;;;;31.38;12.38;;;32.80;60.20;;;;;;5087802;28;20030;-69
2022/06/19 10:11:42;;;;;;;23.80;12.70;;;33.20;59.60;;;;;;5069764;28;20028;-68
2022/06/19 10:14:15;;;;;;;29.20;12.77;;;32.80;57.30;;;;;;5069292;28;20121;-64
2022/06/19 10:17:31;;;;;;;34.97;13.45;;;32.90;57.80;;;;;;5069634;28;20032;-68
2022/06/19 10:20:12;;;;;;;25.73;12.52;;;33.20;58.10;;;;;;5027179;28;20076;-67
2022/06/19 10:23:10;;;;;;;25.63;12.77;;;33.30;57.00;;;;;;5027087;28;20048;-67
2022/06/19 10:26:16;;;;;;;29.90;13.40;;;33.70;55.90;;;;;;5026567;28;20045;-68
2022/06/19 10:28:50;;;;;;;25.20;12.57;;;33.60;53.80;;;;;;4997311;28;20100;-67
2022/06/19 10:31:16;;;;;;;29.50;13.13;;;33.70;54.90;;;;;;5024222;28;20512;-67
2022/06/19 10:34:06;;;;;;;29.00;13.35;;;34.00;56.10;;;;;;5011638;28;20030;-68
2022/06/19 10:36:44;;;;;;;33.38;13.25;;;34.20;52.70;;;;;;5023772;28;20033;-67
2022/06/19 10:39:45;;;;;;;32.20;12.48;;;34.10;54.30;;;;;;5009309;28;20076;-65
2022/06/19 10:42:31;;;;;;;33.95;12.90;;;34.10;53.10;;;;;;4997282;28;20120;-67
2022/06/19 10:45:09;;;;;;;32.70;12.52;;;34.20;54.50;;;;;;5016269;28;20100;-67
2022/06/19 10:48:11;;;;;;;30.60;13.70;;;34.30;52.80;;;;;;5010841;28;20624;-66
2022/06/19 10:50:46;;;;;;;29.73;12.63;;;34.40;53.30;;;;;;5051637;28;20036;-69
2022/06/19 10:53:48;;;;;;;28.85;12.98;;;34.70;53.40;;;;;;5076678;28;20521;-67
2022/06/19 10:56:37;;;;;;;29.20;13.00;;;34.70;53.00;;;;;;5070588;28;20032;-67
2022/06/19 10:59:04;;;;;;;28.87;13.30;;;34.70;52.00;;;;;;5071335;28;20036;-67
2022/06/19 11:04:29;;;;;;;30.10;13.27;;;34.50;50.00;;;;;;5081490;28;20074;-68
2022/06/19 11:06:57;;;;;;;27.38;12.30;;;34.40;51.50;;;;;;5066765;28;20032;-78
2022/06/19 11:09:32;;;;;;;32.15;14.93;;;34.50;51.00;;;;;;5073734;28;20038;-75
2022/06/19 11:12:29;;;;;;;29.80;13.35;;;34.30;48.60;;;;;;5074678;28;20038;-73
2022/06/19 11:14:59;;;;;;;37.95;13.82;;;34.10;51.10;;;;;;5071385;28;20418;-70
2022/06/19 11:17:27;;;;;;;;;;;34.00;51.40;;;;;;5073931;28;20055;-75
2022/06/19 11:19:53;;;;;;;35.67;14.50;;;33.90;51.60;;;;;;5081095;28;19908;-74
2022/06/19 11:22:25;;;;;;;29.90;12.82;;;33.80;49.90;;;;;;5073484;28;20303;-74
2022/06/19 11:24:52;;;;;;;33.13;12.77;;;34.10;52.50;;;;;;5070281;28;20032;-73
2022/06/19 11:27:23;;;;;;;34.65;14.10;;;34.40;51.50;;;;;;5072335;28;20115;-77
2022/06/19 11:29:51;;;;;;;29.05;13.13;;;34.70;50.40;;;;;;5082789;28;20048;-76
2022/06/19 11:32:26;;;;;;;31.25;13.27;;;34.60;48.90;;;;;;5076726;28;20460;-77
2022/06/19 11:35:03;;;;;;;36.90;12.90;;;34.40;48.50;;;;;;5078827;28;20040;-77
2022/06/19 11:37:56;;;;;;;30.42;12.90;;;34.40;47.20;;;;;;5079436;28;20126;-77
2022/06/19 11:40:31;;;;;;;29.17;13.63;;;34.70;47.60;;;;;;5078766;28;20436;-76
2022/06/19 11:42:59;;;;;;;33.05;14.05;;;34.70;47.00;;;;;;5082088;28;20048;-77
2022/06/19 11:45:26;;;;;;;30.40;13.63;;;34.70;47.80;;;;;;5080420;28;20770;-78
2022/06/19 11:47:54;;;;;;;36.75;13.80;;;34.90;48.20;;;;;;5079628;28;20032;-77
2022/06/19 11:50:26;;;;;;;28.23;14.00;;;35.20;48.20;;;;;;5079759;28;20028;-75
2022/06/19 11:52:58;;;;;;;44.40;15.13;;;35.60;46.70;;;;;;5092725;28;20086;-77
2022/06/19 11:56:08;;;;;;;25.63;13.60;;;35.60;45.80;;;;;;5080681;28;20089;-76
2022/06/19 11:58:43;;;;;;;27.60;13.18;;;35.20;45.90;;;;;;5084429;28;20825;-77
2022/06/19 12:01:14;;;;;;;25.92;12.88;;;34.90;45.20;;;;;;5083336;28;20042;-77
2022/06/19 12:03:55;;;;;;;43.75;13.93;;;34.90;45.90;;;;;;5075773;28;20117;-76
2022/06/19 12:06:44;;;;;;;31.00;12.48;;;34.90;45.10;;;;;;5083282;28;20028;-75
2022/06/19 12:09:38;;;;;;;31.80;12.18;;;34.90;44.50;;;;;;5085048;28;20028;-75
2022/06/19 12:12:12;;;;;;;34.83;12.90;;;34.90;46.30;;;;;;5082241;28;20451;-74
2022/06/19 12:14:54;;;;;;;31.30;13.43;;;34.80;44.50;;;;;;5078829;28;20036;-75
2022/06/19 12:17:31;;;;;;;34.25;12.90;;;34.70;45.70;;;;;;5085046;28;21997;-77
2022/06/19 12:20:06;;;;;;;31.20;13.07;;;34.10;45.70;;;;;;5089892;28;20046;-77
2022/06/19 12:22:42;;;;;;;36.53;12.32;;;33.80;46.70;;;;;;5082238;28;20025;-76
2022/06/19 12:25:17;;;;;;;27.08;11.40;;;34.10;46.00;;;;;;5073035;28;20708;-75
2022/06/19 12:27:59;;;;;;;37.25;12.27;;;34.60;44.90;;;;;;5084867;28;20035;-74
2022/06/19 12:30:33;;;;;;;31.63;12.50;;;34.70;45.70;;;;;;5088256;28;20112;-74
2022/06/19 12:33:04;;;;;;;29.83;12.80;;;34.60;46.60;;;;;;5078188;28;20016;-77
2022/06/19 12:35:45;;;;;;;42.58;12.70;;;34.60;46.60;;;;;;5079317;28;20124;-72
2022/06/19 12:38:13;;;;;;;35.30;11.70;;;34.50;45.00;;;;;;5080805;28;20109;-76
2022/06/19 12:41:08;;;;;;;26.63;11.73;;;34.70;45.70;;;;;;5077131;28;20058;-74
2022/06/19 12:43:43;;;;;;;27.75;11.52;;;34.90;43.40;;;;;;5084863;28;20097;-73
2022/06/19 12:46:27;;;;;;;28.70;11.35;;;34.80;43.40;;;;;;5079827;28;20150;-76
2022/06/19 12:48:56;;;;;;;29.05;11.40;;;34.80;43.10;;;;;;5085413;28;20726;-77
2022/06/19 12:51:33;;;;;;;26.20;11.55;;;34.80;44.50;;;;;;5084712;28;20047;-72
2022/06/19 12:54:23;;;;;;;24.77;11.18;;;34.60;43.00;;;;;;5078208;28;20101;-75
2022/06/19 12:57:07;;;;;;;;;;;34.70;44.10;;;;;;5086721;28;20623;-76
2022/06/19 12:59:51;;;;;;;27.45;11.38;;;35.10;45.30;;;;;;5070221;28;19959;-71
2022/06/19 13:02:20;;;;;;;26.40;11.30;;;35.00;42.10;;;;;;5087356;28;20027;-68
2022/06/19 13:04:49;;;;;;;28.50;10.65;;;34.60;42.90;;;;;;5078075;28;20062;-75
2022/06/19 13:07:32;;;;;;;26.95;10.48;;;34.50;44.30;;;;;;5081187;28;20058;-69
2022/06/19 13:10:36;;;;;;;28.60;10.65;;;34.50;42.90;;;;;;5077320;28;20396;-73